Nederland, CO

10:04 PM MST on March 05, 2015 (GMT -0700)
Jeffco | Change Station
CLOSE
Current Station
Airport
Location: Broomfield,
Elevation: 5656 ft
Nearby Weather Stations

Elev 5656 ft 39.90 °N, 105.10 °W | Updated 14 minutes ago

Clear
Clear
30 °F
Feels Like 24 °F
N
6
Wind Variable Wind from SSW

Today
High -- | Low -- °F
--% Chance of Precip.
Yesterday
High -- | Low -- °F
Precip. -- in
6:29 AM 5:58 PM
Full, 100% visible
Pressure 30.26 in
Visibility 30.0 miles
Clouds Mostly Cloudy 15000 ft
Windchill 24 °F
Dew Point 14 °F
Humidity 51%
Rainfall 0.00 in
Snow Depth Not available.
UV 0 out of 12
Pollen 5.50 out of 12
Air Quality Not available.
Flu Activity Not available.
METAR KBJC 060450Z 21005KT 30SM BKN150 M01/M10 A3026

More Conditions Fewer Conditions

Pressure 30.26 in
Visibility 30.0 miles
Clouds Mostly Cloudy 15000 ft
Windchill 24 °F
Dew Point 14 °F
Humidity 51%
Rainfall 0.00 in
Snow Depth Not available.
UV 0 out of 12
Pollen 5.50 out of 12
Air Quality Not available.
Flu Activity Not available.
METAR KBJC 060450Z 21005KT 30SM BKN150 M01/M10 A3026

More Conditions Fewer Conditions

10-Day Weather Forecast

Almanac

Astronomy

Mar. 05, 2015 Rise Set
Actual Time
Civil Twilight
Nautical Twilight
Astronomical Twilight
Moon
Length of Visible Light
Length of Day
Tomorrow will be .
, % of the Moon is Illuminated

Today's Extremes

State Highs State Lows

Community

WunderPhotos

Upload Photos

1,803,184 photos uploaded!

WunderBlogs® & News

Nearby

Air Quality

  Air Quality AQ Index Pollutant
Not available.

Snow Depth

Station Depth Elevation

Earthquake Activity

City Distance Mag. Time & Date
Minimum magnitude displayed is 2.5.

Coastal Water Temperatures

Place Temperature

Nearby Weather Stations